Terminal Aerodrome Forecast
Issued by NWS

Home | Current Version | Previous Version | Text Only | Print | Product List | Glossary On
Versions: 1 2 3 4 5 6 7 8 9 10 11 12 13 14 15 16 17 18 19 20
000
FTUS43 KICT 241015 AAB
TAFHUT
TAF AMD
KHUT 241015Z 2410/2506 12011KT P6SM SCT015 BKN025
      TEMPO 2411/2415 SCT009 BKN015
     FM241600 32011KT P6SM SCT015 BKN025
     FM241800 33020G28KT P6SM SCT030=

USA.gov is the U.S. government's official web portal to all federal, state and local government web resources and services.